Time;durP1;ratioP1;P1;durP2;ratioP2;P2;SDS_P1;SDS_P2;PMS_P1;PMS_P2;Temp;Humidity;BMP_temperature;BMP_pressure;BME280_temperature;BME280_humidity;BME280_pressure;Samples;Min_cycle;Max_cycle;Signal;HPM_P1;HPM_P2
2023/09/05 00:00:16;;;;;;;35.10;32.58;;;14.00;99.90;;;;;;6212614;23;20012;-79
2023/09/05 00:02:44;;;;;;;41.42;38.55;;;13.90;99.90;;;;;;6213777;23;20019;-79
2023/09/05 00:05:11;;;;;;;47.10;43.60;;;13.90;99.90;;;;;;6213385;23;20047;-79
2023/09/05 00:07:39;;;;;;;54.13;50.13;;;13.90;99.90;;;;;;6238741;23;20351;-80
2023/09/05 00:10:11;;;;;;;46.80;43.45;;;13.90;99.90;;;;;;6239920;22;20047;-80
2023/09/05 00:12:40;;;;;;;43.00;40.13;;;13.90;99.90;;;;;;6238792;23;20016;-80
2023/09/05 00:15:10;;;;;;;45.75;42.50;;;13.90;99.90;;;;;;6238017;23;20016;-80
2023/09/05 00:17:37;;;;;;;39.65;36.95;;;13.80;99.90;;;;;;6238878;23;20023;-80
2023/09/05 00:20:07;;;;;;;33.40;31.23;;;13.80;99.90;;;;;;6212876;23;20051;-80
2023/09/05 00:22:34;;;;;;;51.20;47.15;;;13.80;99.90;;;;;;6213405;23;20023;-80
2023/09/05 00:25:00;;;;;;;40.42;37.47;;;13.70;99.90;;;;;;6213184;23;20012;-80
2023/09/05 00:27:26;;;;;;;40.50;37.47;;;13.70;99.90;;;;;;6213544;23;20392;-79
2023/09/05 00:29:51;;;;;;;40.40;37.50;;;13.70;99.90;;;;;;6212561;23;20036;-79
2023/09/05 00:32:18;;;;;;;53.85;50.47;;;13.70;99.90;;;;;;6240574;23;20012;-79
2023/09/05 00:34:45;;;;;;;51.05;47.65;;;13.60;99.90;;;;;;6213415;23;20024;-80
2023/09/05 00:37:19;;;;;;;54.78;51.25;;;13.60;99.90;;;;;;6214081;23;20077;-80
2023/09/05 00:39:45;;;;;;;49.22;45.80;;;13.60;99.90;;;;;;6213456;23;20012;-79
2023/09/05 00:42:13;;;;;;;48.83;44.92;;;13.60;99.90;;;;;;6238697;23;20016;-79
2023/09/05 00:44:39;;;;;;;46.40;43.13;;;13.40;99.90;;;;;;6212653;23;20050;-80
2023/09/05 00:47:05;;;;;;;45.17;42.17;;;13.50;99.90;;;;;;6239021;23;20019;-79
2023/09/05 00:49:38;;;;;;;45.70;42.70;;;13.50;99.90;;;;;;6213312;23;20044;-79
2023/09/05 00:52:07;;;;;;;47.65;44.35;;;13.50;99.90;;;;;;6212999;23;20012;-79
2023/09/05 00:54:35;;;;;;;48.00;44.75;;;13.50;99.90;;;;;;6238890;23;20023;-80
2023/09/05 00:57:05;;;;;;;50.88;47.50;;;13.50;99.90;;;;;;6213145;23;20016;-80
2023/09/05 00:59:34;;;;;;;43.63;40.13;;;13.50;99.90;;;;;;6212471;23;20015;-79
2023/09/05 01:02:00;;;;;;;41.17;38.03;;;13.40;99.90;;;;;;6212573;23;20023;-80
2023/09/05 01:04:26;;;;;;;40.08;37.38;;;13.40;99.90;;;;;;6237990;23;20016;-79
2023/09/05 01:07:12;;;;;;;43.13;40.22;;;13.40;99.90;;;;;;6240536;22;20277;-80
2023/09/05 01:09:50;;;;;;;50.28;46.92;;;13.40;99.90;;;;;;6212888;23;20143;-79
2023/09/05 01:12:17;;;;;;;51.25;47.70;;;13.40;99.90;;;;;;6212325;23;20012;-79
2023/09/05 01:14:43;;;;;;;51.53;47.92;;;13.40;99.90;;;;;;6238549;23;20466;-79
2023/09/05 01:17:08;;;;;;;54.38;50.72;;;13.40;99.90;;;;;;6237998;23;20024;-79
2023/09/05 01:19:39;;;;;;;44.45;41.22;;;13.40;99.90;;;;;;6238688;23;20087;-80
2023/09/05 01:22:15;;;;;;;45.30;42.17;;;13.40;99.90;;;;;;6237851;23;20012;-80
2023/09/05 01:24:42;;;;;;;52.95;49.22;;;13.40;99.90;;;;;;6212876;23;20012;-80
2023/09/05 01:27:09;;;;;;;50.67;47.05;;;13.40;99.90;;;;;;6211982;23;20091;-80
2023/09/05 01:29:36;;;;;;;55.40;51.08;;;13.40;99.90;;;;;;6212885;23;20051;-80
2023/09/05 01:32:09;;;;;;;51.45;47.85;;;13.40;99.90;;;;;;6237976;23;20004;-80
2023/09/05 01:34:35;;;;;;;61.58;57.40;;;13.40;99.90;;;;;;6212768;23;20018;-80
2023/09/05 01:37:01;;;;;;;48.42;44.92;;;13.50;99.90;;;;;;6212811;23;20012;-80
2023/09/05 01:39:27;;;;;;;45.60;42.15;;;13.50;99.90;;;;;;6263688;22;20023;-79
2023/09/05 01:41:53;;;;;;;55.72;51.67;;;13.60;99.90;;;;;;6211621;23;20016;-80
2023/09/05 01:44:18;;;;;;;47.03;43.33;;;13.50;99.90;;;;;;6212867;23;20091;-80
2023/09/05 01:46:44;;;;;;;51.88;48.10;;;13.50;99.90;;;;;;6212812;23;20066;-80
2023/09/05 01:49:10;;;;;;;60.22;55.88;;;13.50;99.90;;;;;;6212796;23;20032;-80
2023/09/05 01:51:36;;;;;;;55.90;51.60;;;13.60;99.90;;;;;;6212406;23;20016;-80
2023/09/05 01:54:03;;;;;;;49.42;45.20;;;13.60;99.90;;;;;;6238217;23;20023;-79
2023/09/05 01:56:29;;;;;;;54.47;50.47;;;13.60;99.90;;;;;;6211850;23;20351;-79
2023/09/05 01:58:54;;;;;;;46.95;43.45;;;13.60;99.90;;;;;;6237784;23;20646;-79
2023/09/05 02:01:20;;;;;;;50.03;46.30;;;13.60;99.90;;;;;;6237528;23;20008;-79
2023/09/05 02:03:47;;;;;;;43.78;40.13;;;13.60;99.90;;;;;;6237666;23;20512;-80
2023/09/05 02:06:15;;;;;;;51.30;47.50;;;13.60;99.90;;;;;;6238616;23;20083;-79
2023/09/05 02:08:41;;;;;;;47.40;43.70;;;13.60;99.90;;;;;;6238016;23;20073;-80
2023/09/05 02:11:09;;;;;;;49.13;45.28;;;13.60;99.90;;;;;;6238598;22;20012;-79
2023/09/05 02:13:35;;;;;;;42.30;39.05;;;13.50;99.90;;;;;;6212553;23;20008;-79
2023/09/05 02:16:01;;;;;;;48.42;44.33;;;13.50;99.90;;;;;;6237788;23;20099;-80
2023/09/05 02:18:27;;;;;;;53.30;49.30;;;13.50;99.90;;;;;;6212538;23;20496;-80
2023/09/05 02:21:01;;;;;;;46.90;43.17;;;13.50;99.90;;;;;;6212352;23;20082;-79
2023/09/05 02:23:27;;;;;;;54.28;50.00;;;13.50;99.90;;;;;;6212965;23;20011;-80
2023/09/05 02:26:01;;;;;;;50.97;46.75;;;13.50;99.90;;;;;;6211849;23;20012;-80
2023/09/05 02:28:27;;;;;;;46.33;42.78;;;13.50;99.90;;;;;;6238605;23;20023;-80
2023/09/05 02:30:54;;;;;;;53.33;49.42;;;13.50;99.90;;;;;;6237511;23;20012;-80
2023/09/05 02:33:20;;;;;;;48.33;44.17;;;13.50;99.90;;;;;;6212506;23;20336;-80
2023/09/05 02:35:47;;;;;;;49.20;45.50;;;13.50;99.90;;;;;;6238284;23;20098;-80
2023/09/05 02:38:13;;;;;;;55.95;51.50;;;13.50;99.90;;;;;;6239461;23;20024;-80
2023/09/05 02:40:46;;;;;;;55.58;51.10;;;13.50;99.90;;;;;;6240612;22;20305;-79
2023/09/05 02:43:12;;;;;;;50.90;46.38;;;13.50;99.90;;;;;;6214964;23;20073;-80
2023/09/05 02:45:38;;;;;;;48.00;43.83;;;13.50;99.90;;;;;;6239417;23;20018;-79
2023/09/05 02:48:06;;;;;;;51.35;47.50;;;13.60;99.90;;;;;;6214497;23;20406;-80
2023/09/05 02:50:34;;;;;;;50.70;46.60;;;13.60;99.90;;;;;;6264576;22;20016;-80
2023/09/05 02:53:00;;;;;;;51.53;47.30;;;13.60;99.90;;;;;;6214260;23;20012;-79
2023/09/05 02:55:25;;;;;;;58.45;54.03;;;13.70;99.90;;;;;;6213797;23;20023;-80
2023/09/05 02:57:52;;;;;;;47.65;43.47;;;13.70;99.90;;;;;;6240014;23;20019;-80
2023/09/05 03:00:19;;;;;;;53.28;48.75;;;13.70;99.90;;;;;;6213766;23;20481;-79
2023/09/05 03:02:46;;;;;;;55.50;50.75;;;13.60;99.90;;;;;;6214365;23;20492;-79
2023/09/05 03:05:13;;;;;;;47.47;43.35;;;13.60;99.90;;;;;;6213981;23;20066;-79
2023/09/05 03:07:39;;;;;;;56.20;51.45;;;13.70;99.90;;;;;;6240078;23;20054;-79
2023/09/05 03:10:05;;;;;;;56.03;51.53;;;13.70;99.90;;;;;;6212871;23;20012;-80
2023/09/05 03:12:34;;;;;;;52.47;48.25;;;13.70;99.90;;;;;;6239414;23;20027;-80
2023/09/05 03:15:00;;;;;;;52.35;48.28;;;13.60;99.90;;;;;;6213892;23;20054;-79
2023/09/05 03:17:25;;;;;;;53.90;49.72;;;13.60;99.90;;;;;;6239643;23;20023;-80
2023/09/05 03:19:51;;;;;;;54.30;50.10;;;13.60;99.90;;;;;;6240372;22;20016;-79
2023/09/05 03:22:17;;;;;;;57.10;52.55;;;13.60;99.90;;;;;;6239812;23;20015;-80
2023/09/05 03:24:43;;;;;;;56.10;51.65;;;13.50;99.90;;;;;;6213436;23;20026;-79
2023/09/05 03:27:09;;;;;;;52.47;48.22;;;13.60;99.90;;;;;;6239588;23;20019;-80
2023/09/05 03:29:34;;;;;;;59.13;54.42;;;13.60;99.90;;;;;;6240536;22;20083;-80
2023/09/05 03:32:00;;;;;;;55.42;50.92;;;13.50;99.90;;;;;;6239307;23;20012;-79
2023/09/05 03:34:26;;;;;;;46.70;43.00;;;13.50;99.90;;;;;;6239158;23;20012;-80
2023/09/05 03:36:51;;;;;;;51.95;47.90;;;13.50;99.90;;;;;;6238877;23;20008;-79
2023/09/05 03:39:17;;;;;;;54.78;50.33;;;13.50;99.90;;;;;;6264906;22;20455;-80
2023/09/05 03:41:44;;;;;;;55.95;51.50;;;13.40;99.90;;;;;;6213849;23;20092;-80
2023/09/05 03:44:10;;;;;;;53.92;49.35;;;13.40;99.90;;;;;;6239742;23;20012;-80
2023/09/05 03:46:35;;;;;;;51.03;46.60;;;13.40;99.90;;;;;;6213968;23;20036;-79
2023/09/05 03:49:01;;;;;;;56.85;52.60;;;13.40;99.90;;;;;;6239551;23;20355;-80
2023/09/05 03:51:29;;;;;;;57.30;52.45;;;13.40;99.90;;;;;;6238452;23;20481;-80
2023/09/05 03:53:58;;;;;;;60.35;55.58;;;13.30;99.90;;;;;;6213886;23;20012;-79
2023/09/05 03:56:24;;;;;;;56.92;52.35;;;13.30;99.90;;;;;;6239050;23;20018;-79
2023/09/05 03:58:50;;;;;;;57.63;53.15;;;13.30;99.90;;;;;;6239025;23;20279;-79
2023/09/05 04:01:16;;;;;;;57.20;52.72;;;13.30;99.90;;;;;;6238357;23;20014;-79
2023/09/05 04:03:45;;;;;;;51.22;47.05;;;13.30;99.90;;;;;;6239220;23;20027;-80
2023/09/05 04:06:11;;;;;;;53.97;49.47;;;13.40;99.90;;;;;;6238759;23;20016;-80
2023/09/05 04:08:37;;;;;;;60.30;55.38;;;13.30;99.90;;;;;;6213690;23;20008;-79
2023/09/05 04:11:06;;;;;;;56.83;52.05;;;13.30;99.90;;;;;;6213094;23;20516;-80
2023/09/05 04:13:35;;;;;;;57.13;52.33;;;13.30;99.90;;;;;;6239247;23;20055;-79
2023/09/05 04:16:05;;;;;;;54.63;50.28;;;13.30;99.90;;;;;;6238913;23;20019;-79
2023/09/05 04:18:34;;;;;;;57.50;53.00;;;13.30;99.90;;;;;;6239161;23;20016;-79
2023/09/05 04:21:00;;;;;;;59.38;54.50;;;13.30;99.90;;;;;;6263229;22;20016;-80
2023/09/05 04:23:26;;;;;;;58.47;53.83;;;13.20;99.90;;;;;;6239313;23;20055;-80
2023/09/05 04:25:57;;;;;;;60.67;55.78;;;13.20;99.90;;;;;;6240483;22;20015;-79
2023/09/05 04:28:24;;;;;;;55.03;50.45;;;13.30;99.90;;;;;;6213516;23;20087;-79
2023/09/05 04:30:51;;;;;;;53.10;48.92;;;13.40;99.90;;;;;;6214133;23;20098;-80
2023/09/05 04:33:17;;;;;;;58.38;53.63;;;13.20;99.90;;;;;;6218982;23;20047;-79
2023/09/05 04:35:42;;;;;;;57.72;53.33;;;13.20;99.90;;;;;;6240394;23;20027;-79
2023/09/05 04:38:09;;;;;;;57.25;52.67;;;13.40;99.90;;;;;;6214600;23;20016;-79
2023/09/05 04:40:35;;;;;;;54.05;49.22;;;13.10;99.90;;;;;;6239832;23;20016;-79
2023/09/05 04:43:01;;;;;;;60.13;55.10;;;13.20;99.90;;;;;;6214445;23;20019;-79
2023/09/05 04:45:27;;;;;;;58.38;53.67;;;13.10;99.90;;;;;;6239457;23;20017;-80
2023/09/05 04:47:53;;;;;;;55.97;51.55;;;13.00;99.90;;;;;;6239499;23;20023;-80
2023/09/05 04:50:19;;;;;;;53.97;49.65;;;13.10;99.90;;;;;;6238889;23;20055;-79
2023/09/05 04:52:44;;;;;;;55.35;50.78;;;13.10;99.90;;;;;;6212648;23;20012;-79
2023/09/05 04:55:10;;;;;;;57.90;53.40;;;13.10;99.90;;;;;;6214297;23;20274;-79
2023/09/05 04:57:36;;;;;;;53.65;49.13;;;13.00;99.90;;;;;;6213894;23;20360;-80
2023/09/05 05:00:05;;;;;;;59.22;54.33;;;13.10;99.90;;;;;;6214098;23;20023;-80
2023/09/05 05:02:33;;;;;;;53.70;49.38;;;12.70;99.90;;;;;;6238688;23;20023;-80
2023/09/05 05:04:59;;;;;;;53.92;49.53;;;13.10;99.90;;;;;;6238249;23;20012;-80
2023/09/05 05:07:25;;;;;;;55.53;51.20;;;13.10;99.90;;;;;;6213986;23;20008;-81
2023/09/05 05:09:50;;;;;;;55.45;50.88;;;13.30;99.90;;;;;;6213755;23;20066;-80
2023/09/05 05:12:16;;;;;;;57.45;52.08;;;13.20;99.90;;;;;;6214041;23;20015;-80
2023/09/05 05:14:42;;;;;;;56.22;51.63;;;13.20;99.90;;;;;;6239497;23;20016;-81
2023/09/05 05:17:08;;;;;;;59.35;54.50;;;13.20;99.90;;;;;;6213911;23;20340;-80
2023/09/05 05:19:37;;;;;;;55.08;50.47;;;13.30;99.90;;;;;;6213274;23;20447;-80
2023/09/05 05:22:03;;;;;;;60.58;55.50;;;13.30;99.90;;;;;;6214052;23;20020;-80
2023/09/05 05:24:28;;;;;;;52.88;48.28;;;13.30;99.90;;;;;;6240912;23;20339;-81
2023/09/05 05:26:54;;;;;;;60.13;55.40;;;13.30;99.90;;;;;;6239134;23;20040;-80
2023/09/05 05:29:20;;;;;;;51.63;47.53;;;13.40;99.90;;;;;;6239233;23;20008;-81
2023/09/05 05:31:48;;;;;;;50.28;45.95;;;13.40;99.90;;;;;;6241111;23;20012;-80
2023/09/05 05:34:15;;;;;;;57.65;52.80;;;13.50;99.90;;;;;;6240788;22;20020;-81
2023/09/05 05:36:40;;;;;;;51.28;46.75;;;13.50;99.90;;;;;;6238835;23;20095;-80
2023/09/05 05:39:06;;;;;;;53.05;48.47;;;13.50;99.90;;;;;;6214080;23;20402;-80
2023/09/05 05:41:35;;;;;;;55.08;50.63;;;13.60;99.90;;;;;;6213933;23;20050;-80
2023/09/05 05:44:01;;;;;;;56.38;52.00;;;13.60;99.90;;;;;;6213664;23;20051;-80
2023/09/05 05:46:27;;;;;;;51.60;47.25;;;13.70;99.90;;;;;;6239093;23;20008;-80
2023/09/05 05:48:53;;;;;;;50.28;45.88;;;13.70;99.90;;;;;;6238312;23;20530;-80
2023/09/05 05:51:19;;;;;;;41.83;38.28;;;13.80;99.90;;;;;;6239321;23;20090;-80
2023/09/05 05:53:46;;;;;;;42.28;38.83;;;13.70;99.90;;;;;;6239406;23;20041;-80
2023/09/05 05:56:12;;;;;;;40.25;36.65;;;13.80;99.90;;;;;;6213754;23;20351;-80
2023/09/05 05:58:38;;;;;;;62.45;57.40;;;13.80;99.90;;;;;;6240983;22;20327;-80
2023/09/05 06:01:06;;;;;;;44.83;40.92;;;13.80;99.90;;;;;;6213779;23;20016;-80
2023/09/05 06:03:51;;;;;;;44.75;41.25;;;13.90;99.90;;;;;;6213051;23;20020;-80
2023/09/05 06:06:18;;;;;;;41.33;38.13;;;14.00;99.90;;;;;;6213944;23;20020;-80
2023/09/05 06:08:46;;;;;;;50.00;46.15;;;14.00;99.90;;;;;;6239727;23;20023;-80
2023/09/05 06:11:12;;;;;;;40.50;37.17;;;14.10;99.90;;;;;;6213966;23;20020;-80
2023/09/05 06:13:38;;;;;;;41.72;38.22;;;14.40;99.90;;;;;;6215253;23;20040;-80
2023/09/05 06:16:03;;;;;;;44.42;40.97;;;14.40;99.90;;;;;;6243489;22;20058;-80
2023/09/05 06:18:38;;;;;;;31.55;28.58;;;15.30;99.90;;;;;;6215886;23;20035;-81
2023/09/05 06:21:06;;;;;;;35.30;32.33;;;16.40;99.90;;;;;;6241172;23;20008;-80
2023/09/05 06:23:36;;;;;;;29.52;26.77;;;17.60;99.90;;;;;;6241720;23;20118;-81
2023/09/05 06:26:04;;;;;;;24.45;21.00;;;18.60;99.90;;;;;;6241152;23;20016;-80
2023/09/05 06:28:30;;;;;;;24.30;22.30;;;19.20;99.90;;;;;;6215685;23;20040;-81
2023/09/05 06:30:57;;;;;;;30.83;28.33;;;20.10;99.90;;;;;;6215096;23;20067;-81
2023/09/05 06:33:23;;;;;;;34.25;31.85;;;20.60;99.90;;;;;;6240795;23;20034;-81
2023/09/05 06:35:49;;;;;;;29.98;27.48;;;21.10;99.90;;;;;;6215610;23;20518;-80
2023/09/05 06:38:15;;;;;;;25.67;23.65;;;21.50;99.90;;;;;;6215903;23;20443;-81
2023/09/05 06:40:41;;;;;;;25.05;23.13;;;21.10;99.90;;;;;;6215902;23;20023;-80
2023/09/05 06:43:10;;;;;;;25.08;22.77;;;20.40;99.90;;;;;;6215836;23;20012;-80
2023/09/05 06:45:36;;;;;;;27.45;25.25;;;19.80;99.90;;;;;;6240144;23;20174;-80
2023/09/05 06:48:05;;;;;;;33.63;31.25;;;19.30;99.90;;;;;;6241481;23;20051;-80
2023/09/05 06:50:30;;;;;;;33.08;30.40;;;18.90;99.90;;;;;;6215632;23;20051;-80
2023/09/05 06:52:56;;;;;;;31.67;29.27;;;18.60;99.90;;;;;;6243381;23;20012;-81
2023/09/05 06:55:22;;;;;;;31.35;28.90;;;18.30;99.90;;;;;;6216214;23;20031;-80
2023/09/05 06:57:47;;;;;;;32.55;30.23;;;18.20;99.90;;;;;;6241189;23;20150;-80
2023/09/05 07:00:14;;;;;;;32.63;30.25;;;18.10;99.90;;;;;;6242627;23;20459;-80
2023/09/05 07:02:39;;;;;;;29.90;27.33;;;18.00;99.90;;;;;;6215538;23;20012;-80
2023/09/05 07:05:08;;;;;;;30.30;27.90;;;17.90;99.90;;;;;;6215166;23;20038;-80
2023/09/05 07:07:40;;;;;;;31.92;29.55;;;17.80;99.90;;;;;;6241302;23;20447;-80
2023/09/05 07:10:06;;;;;;;28.75;26.30;;;17.80;99.90;;;;;;6241112;23;20043;-80
2023/09/05 07:12:38;;;;;;;29.63;27.33;;;17.80;99.90;;;;;;6215319;23;20056;-80
2023/09/05 07:15:07;;;;;;;33.47;30.65;;;17.80;99.90;;;;;;6240045;23;20044;-81
2023/09/05 07:17:33;;;;;;;29.15;26.85;;;17.90;99.90;;;;;;6241888;23;20026;-80
2023/09/05 07:19:58;;;;;;;29.45;26.80;;;17.80;99.90;;;;;;6240751;23;20016;-80
2023/09/05 07:22:24;;;;;;;28.60;26.25;;;17.90;99.90;;;;;;6240775;23;20008;-80
2023/09/05 07:24:50;;;;;;;29.85;27.17;;;17.90;99.90;;;;;;6241831;23;20012;-80
2023/09/05 07:27:16;;;;;;;31.13;28.80;;;17.90;99.90;;;;;;6215360;23;20012;-81
2023/09/05 07:29:42;;;;;;;31.85;29.25;;;18.00;99.90;;;;;;6240285;23;20039;-80
2023/09/05 07:32:08;;;;;;;31.52;29.02;;;18.00;99.90;;;;;;6242426;23;20012;-80
2023/09/05 07:34:37;;;;;;;28.33;25.90;;;18.00;99.90;;;;;;6240451;23;20016;-80
2023/09/05 07:37:05;;;;;;;30.67;28.30;;;18.10;99.90;;;;;;6216126;23;20023;-80
2023/09/05 07:39:31;;;;;;;28.10;25.70;;;18.10;99.90;;;;;;6215374;23;20179;-80
2023/09/05 07:41:57;;;;;;;29.00;26.90;;;18.20;99.90;;;;;;6240420;23;20304;-80
2023/09/05 07:44:23;;;;;;;26.13;23.63;;;18.30;99.90;;;;;;6241529;23;20362;-81
2023/09/05 07:46:48;;;;;;;24.70;22.50;;;18.40;99.90;;;;;;6240408;23;20011;-80
2023/09/05 07:49:15;;;;;;;30.35;28.05;;;18.40;99.90;;;;;;6240378;23;20091;-80
2023/09/05 07:51:42;;;;;;;31.23;28.85;;;18.50;99.90;;;;;;6215028;23;20016;-81
2023/09/05 07:54:10;;;;;;;32.05;29.63;;;18.30;99.90;;;;;;6215094;23;20154;-80
2023/09/05 07:56:36;;;;;;;34.10;31.55;;;18.60;99.90;;;;;;6242248;22;20047;-80
2023/09/05 07:59:05;;;;;;;31.20;28.48;;;18.70;99.90;;;;;;6239478;23;20009;-80
2023/09/05 08:01:37;;;;;;;31.90;29.50;;;18.70;99.90;;;;;;6240081;23;20012;-80
2023/09/05 08:04:04;;;;;;;25.02;23.02;;;18.80;99.90;;;;;;6240010;23;20062;-80
2023/09/05 08:06:29;;;;;;;25.83;23.90;;;18.90;99.90;;;;;;6240060;23;20193;-80
2023/09/05 08:08:55;;;;;;;29.50;27.00;;;18.90;99.90;;;;;;6214995;23;20258;-82
2023/09/05 08:11:21;;;;;;;33.38;31.05;;;19.00;99.90;;;;;;6214762;23;20023;-80
2023/09/05 08:13:47;;;;;;;29.15;26.95;;;19.00;99.90;;;;;;6214216;23;20008;-80
2023/09/05 08:16:13;;;;;;;28.80;26.45;;;19.10;99.90;;;;;;6240393;23;20343;-80
2023/09/05 08:18:39;;;;;;;27.38;25.17;;;19.20;99.90;;;;;;6239846;23;20023;-80
2023/09/05 08:21:05;;;;;;;31.95;29.50;;;19.30;99.90;;;;;;6214488;23;20012;-80
2023/09/05 08:23:31;;;;;;;25.88;23.80;;;19.40;99.90;;;;;;6242016;23;20043;-81
2023/09/05 08:25:57;;;;;;;27.80;25.83;;;19.40;99.90;;;;;;6214332;23;20019;-81
2023/09/05 08:28:26;;;;;;;31.63;29.27;;;19.50;99.90;;;;;;6237763;23;20171;-80
2023/09/05 08:30:59;;;;;;;32.38;30.17;;;19.50;99.90;;;;;;6214761;23;20087;-80
2023/09/05 08:33:25;;;;;;;32.25;29.77;;;19.60;99.90;;;;;;6214578;23;20147;-80
2023/09/05 08:35:52;;;;;;;38.50;35.88;;;19.80;99.90;;;;;;6214273;23;20012;-80
2023/09/05 08:38:18;;;;;;;29.85;27.90;;;19.90;99.90;;;;;;6239765;23;20016;-80
2023/09/05 08:40:47;;;;;;;33.88;31.38;;;20.00;99.90;;;;;;6241482;22;20071;-81
2023/09/05 08:43:15;;;;;;;28.38;26.38;;;20.20;99.90;;;;;;6213770;23;20459;-81
2023/09/05 08:45:44;;;;;;;32.80;30.45;;;20.30;99.90;;;;;;6214188;23;20188;-80
2023/09/05 08:48:10;;;;;;;34.65;31.98;;;20.40;99.90;;;;;;6214436;23;20012;-80
2023/09/05 08:50:37;;;;;;;31.58;29.35;;;20.70;99.90;;;;;;6214255;23;20014;-80
2023/09/05 08:53:15;;;;;;;42.95;40.25;;;21.20;99.90;;;;;;6238693;23;20012;-81
2023/09/05 08:55:43;;;;;;;44.25;41.25;;;22.00;99.90;;;;;;6240208;23;20008;-80
2023/09/05 08:58:15;;;;;;;42.85;40.13;;;22.80;99.90;;;;;;6213587;23;20044;-80
2023/09/05 09:00:43;;;;;;;37.53;35.10;;;23.60;99.90;;;;;;6265005;22;20435;-81
2023/09/05 09:03:09;;;;;;;49.22;45.97;;;24.30;99.90;;;;;;6214131;23;20074;-80
2023/09/05 09:05:38;;;;;;;38.33;35.78;;;25.00;99.90;;;;;;6213971;23;20019;-80
2023/09/05 09:08:04;;;;;;;29.15;27.08;;;25.80;99.90;;;;;;6214087;23;20012;-81
2023/09/05 09:10:30;;;;;;;27.95;25.95;;;26.20;99.90;;;;;;6240868;22;20008;-81
2023/09/05 09:13:16;;;;;;;35.17;32.75;;;26.30;99.90;;;;;;6214305;23;20054;-80
2023/09/05 09:15:46;;;;;;;42.53;39.83;;;26.70;99.90;;;;;;6239728;23;20020;-80
2023/09/05 09:18:17;;;;;;;35.10;32.25;;;26.90;99.90;;;;;;6239426;23;20072;-80
2023/09/05 09:20:49;;;;;;;42.83;40.00;;;27.20;99.90;;;;;;6239114;23;20046;-81
2023/09/05 09:23:30;;;;;;;45.42;41.95;;;27.40;99.90;;;;;;6239785;23;20087;-80
2023/09/05 09:25:57;;;;;;;42.63;39.95;;;27.40;99.90;;;;;;6240800;22;20022;-81
2023/09/05 09:28:28;;;;;;;47.83;44.83;;;27.60;99.90;;;;;;6214568;23;20019;-81
2023/09/05 09:31:03;;;;;;;55.97;52.60;;;27.30;99.90;;;;;;6214488;23;20035;-80
2023/09/05 09:33:31;;;;;;;71.05;67.00;;;26.60;99.90;;;;;;6265098;22;20012;-81
2023/09/05 09:36:08;;;;;;;51.22;48.13;;;25.40;99.90;;;;;;6239760;23;20199;-80
2023/09/05 09:38:35;;;;;;;33.05;30.75;;;24.80;99.90;;;;;;6239633;23;20019;-81
2023/09/05 09:41:06;;;;;;;45.50;42.38;;;24.50;99.90;;;;;;6239068;23;20019;-80
2023/09/05 09:43:36;;;;;;;60.25;56.55;;;24.10;99.90;;;;;;6264997;22;20016;-81
2023/09/05 09:46:04;;;;;;;44.60;41.70;;;24.10;99.90;;;;;;6214241;23;20108;-80
2023/09/05 09:48:32;;;;;;;45.17;42.50;;;23.90;99.90;;;;;;6239125;22;20008;-81
2023/09/05 09:51:00;;;;;;;39.10;36.60;;;24.00;99.90;;;;;;6264406;22;20018;-80
2023/09/05 09:53:38;;;;;;;46.70;44.03;;;23.90;99.90;;;;;;6214113;23;20030;-80
2023/09/05 09:56:15;;;;;;;42.38;39.58;;;24.00;99.90;;;;;;6213260;23;20016;-80
2023/09/05 09:58:46;;;;;;;35.38;33.20;;;24.00;99.90;;;;;;6213732;23;20074;-81
2023/09/05 10:01:13;;;;;;;50.30;47.10;;;24.00;99.90;;;;;;6214419;23;20389;-80
2023/09/05 10:03:40;;;;;;;28.63;26.77;;;24.10;99.90;;;;;;6214111;23;20016;-80
2023/09/05 10:06:07;;;;;;;31.48;29.38;;;24.20;99.90;;;;;;6239444;23;20024;-80
2023/09/05 10:08:34;;;;;;;40.22;37.58;;;24.20;99.90;;;;;;6213337;23;20093;-81
2023/09/05 10:11:01;;;;;;;35.85;33.53;;;24.40;99.90;;;;;;6239401;23;20035;-80
2023/09/05 10:13:30;;;;;;;41.97;39.33;;;24.50;99.90;;;;;;6213647;23;20039;-81
2023/09/05 10:15:56;;;;;;;46.35;43.53;;;24.50;99.90;;;;;;6213413;23;20078;-80
2023/09/05 10:18:23;;;;;;;43.65;40.55;;;24.50;99.90;;;;;;6213643;23;20297;-81
2023/09/05 10:20:54;;;;;;;50.60;47.50;;;24.70;99.90;;;;;;6240694;22;20016;-81
2023/09/05 10:23:23;;;;;;;122.75;115.28;;;24.80;99.90;;;;;;6213212;23;20008;-80
2023/09/05 10:25:50;;;;;;;87.25;82.32;;;24.80;99.90;;;;;;6213447;23;20060;-81
2023/09/05 10:28:16;;;;;;;86.00;80.85;;;24.80;99.90;;;;;;6214144;23;20474;-81
2023/09/05 10:30:46;;;;;;;264.98;247.13;;;24.90;99.90;;;;;;6239257;23;20058;-80
2023/09/05 10:33:13;;;;;;;131.82;123.88;;;24.90;99.90;;;;;;6238677;23;20012;-81
2023/09/05 10:35:44;;;;;;;163.13;153.43;;;25.00;99.90;;;;;;6213362;23;20044;-80
2023/09/05 10:38:12;;;;;;;164.52;154.52;;;25.10;99.90;;;;;;6213178;23;20359;-80
2023/09/05 10:40:39;;;;;;;268.10;250.10;;;25.20;99.90;;;;;;6213465;23;20008;-80
2023/09/05 10:43:08;;;;;;;511.15;475.13;;;25.20;99.90;;;;;;6213396;23;20088;-80
2023/09/05 10:45:37;;;;;;;328.30;306.50;;;25.40;99.90;;;;;;6213637;23;20012;-81
2023/09/05 10:48:12;;;;;;;300.13;280.50;;;25.40;99.90;;;;;;6240526;22;20012;-80
2023/09/05 10:51:06;;;;;;;373.65;348.25;;;25.50;99.90;;;;;;6213914;23;20008;-81
2023/09/05 10:53:34;;;;;;;745.03;688.80;;;25.70;99.90;;;;;;6234808;23;20028;-81
2023/09/05 10:56:00;;;;;;;882.67;814.65;;;25.70;99.90;;;;;;6213426;23;20008;-80
2023/09/05 10:58:46;;;;;;;382.70;356.48;;;25.70;99.90;;;;;;6240949;23;20024;-81
2023/09/05 11:01:29;;;;;;;514.33;477.33;;;25.80;99.90;;;;;;6240623;23;20464;-80
2023/09/05 11:04:03;;;;;;;910.78;840.58;;;25.90;99.90;;;;;;6214951;23;20062;-81
2023/09/05 11:06:28;;;;;;;546.35;507.75;;;26.10;99.90;;;;;;6214571;23;20023;-81
2023/09/05 11:08:59;;;;;;;812.65;750.05;;;26.10;99.90;;;;;;6241037;23;20087;-81
2023/09/05 11:11:25;;;;;;;738.90;680.38;;;26.20;99.90;;;;;;6214179;23;20008;-81
2023/09/05 11:13:51;;;;;;;686.28;635.22;;;26.20;99.90;;;;;;6215253;23;20402;-81
2023/09/05 11:16:17;;;;;;;908.97;830.60;;;26.30;99.90;;;;;;6242553;22;20039;-81
2023/09/05 11:18:46;;;;;;;1063.03;967.25;;;26.40;99.90;;;;;;6265932;22;20443;-80
2023/09/05 11:21:23;;;;;;;1562.78;999.90;;;26.40;99.90;;;;;;6240252;23;20031;-81
2023/09/05 11:23:55;;;;;;;1202.22;999.90;;;26.50;99.90;;;;;;6215541;23;20193;-80
2023/09/05 11:26:26;;;;;;;1119.07;999.90;;;26.60;99.90;;;;;;6215038;23;20012;-81
2023/09/05 11:28:52;;;;;;;1999.90;999.90;;;26.60;99.90;;;;;;6242264;22;20011;-81
2023/09/05 11:31:18;;;;;;;1999.90;999.90;;;26.70;99.90;;;;;;6214945;23;20446;-80
2023/09/05 11:33:45;;;;;;;1999.90;999.90;;;26.80;99.90;;;;;;6215061;23;20008;-81
2023/09/05 11:36:11;;;;;;;1999.90;999.90;;;26.80;99.90;;;;;;6240020;23;20027;-81
2023/09/05 11:38:48;;;;;;;1999.90;999.90;;;27.00;99.90;;;;;;6214912;23;20439;-81
2023/09/05 11:41:15;;;;;;;1999.90;926.08;;;27.00;99.90;;;;;;6215351;23;20316;-81
2023/09/05 11:43:48;;;;;;;1999.90;999.90;;;27.10;99.90;;;;;;6215196;23;20018;-81
2023/09/05 11:46:14;;;;;;;;;;;27.10;99.90;;;;;;6215594;23;20180;-80
2023/09/05 11:48:43;;;;;;;1999.90;999.90;;;27.10;99.90;;;;;;6242570;22;20121;-81
2023/09/05 11:51:14;;;;;;;1999.90;999.90;;;27.10;99.90;;;;;;6239591;23;20374;-81
2023/09/05 11:53:45;;;;;;;1999.90;999.90;;;27.20;99.90;;;;;;6240343;23;20336;-81
2023/09/05 11:56:12;;;;;;;1999.90;999.90;;;27.30;99.90;;;;;;6215062;23;20558;-81
2023/09/05 11:58:38;;;;;;;1999.90;999.90;;;27.30;99.90;;;;;;6240126;23;20092;-81
2023/09/05 12:01:07;;;;;;;1999.90;999.90;;;27.30;99.90;;;;;;6214753;23;20146;-81
2023/09/05 12:03:36;;;;;;;1999.90;999.90;;;27.40;99.90;;;;;;6265425;22;20023;-81
2023/09/05 12:06:02;;;;;;;1999.90;999.90;;;27.40;99.90;;;;;;6214207;23;20111;-81
2023/09/05 12:08:30;;;;;;;1999.90;999.90;;;27.40;99.90;;;;;;6214963;23;20380;-81
2023/09/05 12:10:57;;;;;;;1999.90;999.90;;;27.40;99.90;;;;;;6240120;23;20019;-81
2023/09/05 12:13:40;;;;;;;1999.90;999.90;;;27.50;99.90;;;;;;6240198;23;20016;-81
2023/09/05 12:16:13;;;;;;;1999.90;999.90;;;27.50;99.90;;;;;;6240527;23;20020;-81
2023/09/05 12:18:41;;;;;;;1999.90;999.90;;;27.70;99.90;;;;;;6241564;22;20498;-81
2023/09/05 12:21:07;;;;;;;1999.90;999.90;;;27.70;99.90;;;;;;6239814;23;20051;-81
2023/09/05 12:23:35;;;;;;;1999.90;999.90;;;27.90;99.90;;;;;;6214520;23;20312;-81
2023/09/05 12:26:02;;;;;;;1999.90;999.90;;;27.90;99.90;;;;;;6214533;23;20100;-81